Time;durP1;ratioP1;P1;durP2;ratioP2;P2;SDS_P1;SDS_P2;PMS_P1;PMS_P2;Temp;Humidity;BMP_temperature;BMP_pressure;BME280_temperature;BME280_humidity;BME280_pressure;Samples;Min_cycle;Max_cycle;Signal;HPM_P1;HPM_P2
2022/02/22 00:01:33;;;;;;;55.92;10.88;;;9.10;90.80;;;;;;5023874;28;20702;-62
2022/02/22 00:03:59;;;;;;;77.60;12.50;;;9.00;90.70;;;;;;5023974;28;20067;-60
2022/02/22 00:06:24;;;;;;;69.93;12.95;;;9.10;90.80;;;;;;5026244;28;20155;-60
2022/02/22 00:08:50;;;;;;;66.70;11.00;;;9.00;90.80;;;;;;5023182;28;20046;-60
2022/02/22 00:11:15;;;;;;;65.47;10.48;;;9.00;90.80;;;;;;5023645;28;20087;-60
2022/02/22 00:13:41;;;;;;;58.30;11.23;;;9.00;90.80;;;;;;5021984;28;20072;-60
2022/02/22 00:16:07;;;;;;;66.95;11.40;;;9.00;90.80;;;;;;5024178;28;20052;-62
2022/02/22 00:18:33;;;;;;;62.35;10.82;;;9.00;90.80;;;;;;5024156;28;20029;-61
2022/02/22 00:20:58;;;;;;;60.03;10.63;;;9.00;90.80;;;;;;5007234;28;20033;-60
2022/02/22 00:23:24;;;;;;;63.95;11.13;;;9.00;90.80;;;;;;5022160;28;20847;-62
2022/02/22 00:25:49;;;;;;;54.88;11.65;;;9.00;90.80;;;;;;5021855;28;20121;-62
2022/02/22 00:28:19;;;;;;;44.95;9.32;;;9.00;90.80;;;;;;5021828;28;20441;-62
2022/02/22 00:30:48;;;;;;;52.90;11.25;;;8.90;90.80;;;;;;5023373;28;20052;-59
2022/02/22 00:33:13;;;;;;;54.65;10.05;;;9.00;90.80;;;;;;5021458;28;20430;-59
2022/02/22 00:35:39;;;;;;;51.40;11.60;;;8.90;90.80;;;;;;5021116;28;20040;-63
2022/02/22 00:38:04;;;;;;;69.88;11.55;;;8.90;90.80;;;;;;5018564;28;20045;-60
2022/02/22 00:40:30;;;;;;;58.08;10.73;;;8.90;90.80;;;;;;5019298;28;20029;-59
2022/02/22 00:42:55;;;;;;;57.80;12.70;;;8.90;90.80;;;;;;5025452;28;20366;-59
2022/02/22 00:45:21;;;;;;;60.05;10.68;;;8.90;90.80;;;;;;5025348;28;20547;-60
2022/02/22 00:47:46;;;;;;;54.47;11.13;;;8.90;90.80;;;;;;5024275;28;20108;-60
2022/02/22 00:50:12;;;;;;;49.75;11.05;;;8.90;90.80;;;;;;5023260;28;20033;-63
2022/02/22 00:52:38;;;;;;;59.17;11.25;;;8.90;90.80;;;;;;5024255;28;20057;-60
2022/02/22 00:55:04;;;;;;;47.53;10.50;;;8.90;90.70;;;;;;5026377;28;20057;-59
2022/02/22 00:57:29;;;;;;;55.28;9.85;;;8.90;90.80;;;;;;5027688;28;20543;-60
2022/02/22 00:59:54;;;;;;;52.78;11.18;;;8.90;90.80;;;;;;5023988;28;20053;-59
2022/02/22 01:02:20;;;;;;;54.58;12.60;;;8.80;90.80;;;;;;5024639;28;20029;-61
2022/02/22 01:04:46;;;;;;;54.55;13.35;;;8.80;90.80;;;;;;5024305;28;20049;-61
2022/02/22 01:07:16;;;;;;;60.30;11.63;;;8.80;90.80;;;;;;5025864;28;20429;-60
2022/02/22 01:09:45;;;;;;;40.85;11.25;;;8.80;90.80;;;;;;5009077;28;20022;-63
2022/02/22 01:12:11;;;;;;;43.22;10.90;;;8.80;90.80;;;;;;5023903;28;20515;-63
2022/02/22 01:14:36;;;;;;;46.20;11.27;;;8.80;90.80;;;;;;5023742;28;20045;-62
2022/02/22 01:17:03;;;;;;;38.33;10.07;;;8.80;90.80;;;;;;5023258;28;20080;-62
2022/02/22 01:19:28;;;;;;;48.42;11.27;;;8.80;90.70;;;;;;5022558;28;20044;-61
2022/02/22 01:21:54;;;;;;;45.80;10.05;;;8.80;90.80;;;;;;5024726;28;20022;-62
2022/02/22 01:24:19;;;;;;;46.85;10.68;;;8.80;90.70;;;;;;5007676;28;20093;-62
2022/02/22 01:26:45;;;;;;;43.03;9.13;;;8.70;90.70;;;;;;5024139;28;20021;-62
2022/02/22 01:29:10;;;;;;;37.22;10.63;;;8.80;90.70;;;;;;5023364;28;20041;-61
2022/02/22 01:31:36;;;;;;;32.70;9.55;;;8.70;90.80;;;;;;5004335;28;20158;-60
2022/02/22 01:34:01;;;;;;;44.78;9.75;;;8.80;90.80;;;;;;5025510;28;20071;-60
2022/02/22 01:36:27;;;;;;;36.83;9.40;;;8.80;90.80;;;;;;5025255;28;20218;-60
2022/02/22 01:38:53;;;;;;;40.95;9.02;;;8.70;90.80;;;;;;5024063;28;20033;-63
2022/02/22 01:41:19;;;;;;;38.83;8.52;;;8.70;90.80;;;;;;5022973;28;20200;-59
2022/02/22 01:43:45;;;;;;;40.75;9.55;;;8.80;90.80;;;;;;5022151;28;20045;-60
2022/02/22 01:46:10;;;;;;;40.85;8.77;;;8.80;90.80;;;;;;5023527;28;20035;-59
2022/02/22 01:48:36;;;;;;;36.55;8.85;;;8.70;90.80;;;;;;5024060;28;20170;-60
2022/02/22 01:51:01;;;;;;;37.85;8.40;;;8.70;90.80;;;;;;5024359;28;20026;-60
2022/02/22 01:53:27;;;;;;;35.25;8.10;;;8.70;90.70;;;;;;5023743;28;20049;-58
2022/02/22 01:55:52;;;;;;;31.23;8.63;;;8.70;90.70;;;;;;5023511;28;20029;-60
2022/02/22 01:58:18;;;;;;;28.13;8.18;;;8.70;90.80;;;;;;5022582;28;20049;-62
2022/02/22 02:00:46;;;;;;;25.88;7.13;;;8.70;90.90;;;;;;5023861;28;20057;-62
2022/02/22 02:03:15;;;;;;;30.88;8.32;;;8.70;90.90;;;;;;5022366;28;20148;-62
2022/02/22 02:05:40;;;;;;;39.47;8.65;;;8.70;91.10;;;;;;5023390;28;20025;-62
2022/02/22 02:08:06;;;;;;;32.17;7.05;;;8.70;91.20;;;;;;5021357;28;20021;-58
2022/02/22 02:10:31;;;;;;;26.88;6.80;;;8.70;91.30;;;;;;5020995;28;20436;-62
2022/02/22 02:12:57;;;;;;;31.23;7.97;;;8.70;91.30;;;;;;5023259;28;20065;-62
2022/02/22 02:15:22;;;;;;;31.05;7.70;;;8.70;91.10;;;;;;5023687;28;20037;-58
2022/02/22 02:17:48;;;;;;;28.77;7.15;;;8.70;91.20;;;;;;5024511;28;20040;-61
2022/02/22 02:20:13;;;;;;;23.45;7.22;;;8.70;91.30;;;;;;5020548;28;20120;-61
2022/02/22 02:22:40;;;;;;;25.35;7.53;;;8.70;91.20;;;;;;5019095;28;20493;-62
2022/02/22 02:25:06;;;;;;;24.08;7.75;;;8.70;91.20;;;;;;5022448;28;20029;-61
2022/02/22 02:27:32;;;;;;;18.45;6.20;;;8.60;91.20;;;;;;5024008;28;20044;-62
2022/02/22 02:29:59;;;;;;;28.63;6.78;;;8.70;91.30;;;;;;5024601;28;20058;-62
2022/02/22 02:32:28;;;;;;;21.00;5.88;;;8.60;91.30;;;;;;5022721;28;20091;-63
2022/02/22 02:34:53;;;;;;;15.00;6.13;;;8.60;91.20;;;;;;5021691;28;20060;-62
2022/02/22 02:37:19;;;;;;;21.65;6.55;;;8.60;91.30;;;;;;5020800;28;20528;-62
2022/02/22 02:39:44;;;;;;;20.95;6.53;;;8.60;91.30;;;;;;5022864;28;20038;-62
2022/02/22 02:42:10;;;;;;;24.13;5.90;;;8.60;91.30;;;;;;5022837;28;20026;-61
2022/02/22 02:44:36;;;;;;;12.73;5.30;;;8.60;91.30;;;;;;5024387;28;20396;-60
2022/02/22 02:47:04;;;;;;;19.58;5.45;;;8.60;91.20;;;;;;5020415;28;20768;-62
2022/02/22 02:49:30;;;;;;;21.13;5.47;;;8.60;91.20;;;;;;5020547;28;20557;-63
2022/02/22 02:51:55;;;;;;;18.10;5.57;;;8.60;91.20;;;;;;5021889;28;20121;-61
2022/02/22 02:54:21;;;;;;;25.52;6.18;;;8.50;91.30;;;;;;5021298;28;20200;-61
2022/02/22 02:56:46;;;;;;;12.20;4.72;;;8.50;91.30;;;;;;5023627;28;20048;-61
2022/02/22 02:59:12;;;;;;;19.00;5.10;;;8.50;91.30;;;;;;5021893;28;20718;-61
2022/02/22 03:01:38;;;;;;;15.68;4.95;;;8.50;91.30;;;;;;5020206;28;20138;-61
2022/02/22 03:04:04;;;;;;;15.60;4.78;;;8.50;91.20;;;;;;5021352;28;20508;-60
2022/02/22 03:06:29;;;;;;;15.82;5.32;;;8.50;91.20;;;;;;5023230;28;20130;-61
2022/02/22 03:08:55;;;;;;;15.25;5.00;;;8.50;91.20;;;;;;5018199;28;20864;-62
2022/02/22 03:11:20;;;;;;;13.23;4.80;;;8.50;91.20;;;;;;5005096;28;20087;-62
2022/02/22 03:13:46;;;;;;;14.80;4.78;;;8.50;91.20;;;;;;5023083;28;20389;-61
2022/02/22 03:16:12;;;;;;;11.75;3.80;;;8.50;91.30;;;;;;5020525;28;20545;-62
2022/02/22 03:18:38;;;;;;;12.88;4.32;;;8.40;91.20;;;;;;5021850;28;20030;-66
2022/02/22 03:21:03;;;;;;;14.73;4.38;;;8.40;91.20;;;;;;5021453;28;20107;-61
2022/02/22 03:23:28;;;;;;;17.30;4.78;;;8.50;91.30;;;;;;5020206;28;20037;-62
2022/02/22 03:25:54;;;;;;;17.33;4.40;;;8.40;91.30;;;;;;5022351;28;20026;-60
2022/02/22 03:28:20;;;;;;;12.13;3.90;;;8.40;91.30;;;;;;5020088;28;20037;-61
2022/02/22 03:30:45;;;;;;;13.82;5.00;;;8.40;91.30;;;;;;5020666;28;20060;-62
2022/02/22 03:33:11;;;;;;;13.00;4.75;;;8.40;91.40;;;;;;5022116;28;20488;-61
2022/02/22 03:35:37;;;;;;;10.18;3.65;;;8.40;91.40;;;;;;5021777;28;21168;-59
2022/02/22 03:38:03;;;;;;;13.07;4.35;;;8.40;91.30;;;;;;5017164;28;20052;-61
2022/02/22 03:40:29;;;;;;;9.43;4.05;;;8.40;91.40;;;;;;5018749;28;20513;-63
2022/02/22 03:42:54;;;;;;;13.07;4.47;;;8.40;91.40;;;;;;5020588;28;20473;-62
2022/02/22 03:45:20;;;;;;;15.52;4.63;;;8.40;91.40;;;;;;5021002;28;20102;-63
2022/02/22 03:47:45;;;;;;;11.73;4.10;;;8.40;91.40;;;;;;5020238;28;20109;-63
2022/02/22 03:50:13;;;;;;;12.15;3.95;;;8.30;91.40;;;;;;5019888;28;20037;-60
2022/02/22 03:52:39;;;;;;;12.73;3.80;;;8.30;91.40;;;;;;5016186;28;20477;-60
2022/02/22 03:55:05;;;;;;;7.47;3.20;;;8.30;91.40;;;;;;5019203;28;20033;-63
2022/02/22 03:57:30;;;;;;;7.80;3.60;;;8.40;91.40;;;;;;5021559;28;20025;-60
2022/02/22 03:59:56;;;;;;;12.10;3.58;;;8.30;91.40;;;;;;5023129;28;20033;-62
2022/02/22 04:02:21;;;;;;;9.52;4.00;;;8.40;91.40;;;;;;5021153;28;20239;-62
2022/02/22 04:04:47;;;;;;;10.60;3.30;;;8.40;91.40;;;;;;5020812;28;20041;-60
2022/02/22 04:07:12;;;;;;;10.55;3.42;;;8.30;91.40;;;;;;5019691;28;20029;-63
2022/02/22 04:09:38;;;;;;;7.75;3.10;;;8.30;91.40;;;;;;5018487;28;20029;-63
2022/02/22 04:12:04;;;;;;;13.35;3.78;;;8.30;91.40;;;;;;5022764;28;20045;-61
2022/02/22 04:14:29;;;;;;;9.52;3.20;;;8.30;91.40;;;;;;5019024;28;20044;-62
2022/02/22 04:16:55;;;;;;;10.55;3.60;;;8.30;91.40;;;;;;5003526;28;20109;-60
2022/02/22 04:19:20;;;;;;;9.57;3.55;;;8.30;91.40;;;;;;5019388;28;20397;-64
2022/02/22 04:21:46;;;;;;;10.40;2.90;;;8.30;91.40;;;;;;5001436;28;20540;-60
2022/02/22 04:24:11;;;;;;;6.22;2.92;;;8.30;91.40;;;;;;5019125;28;20021;-63
2022/02/22 04:26:37;;;;;;;6.57;3.25;;;8.30;91.40;;;;;;5021046;28;20029;-60
2022/02/22 04:29:02;;;;;;;10.35;3.17;;;8.30;91.40;;;;;;5004932;28;20125;-62
2022/02/22 04:31:28;;;;;;;10.93;3.65;;;8.30;91.40;;;;;;5021192;28;20021;-61
2022/02/22 04:33:54;;;;;;;12.10;2.95;;;8.30;91.40;;;;;;5017292;28;20125;-61
2022/02/22 04:36:19;;;;;;;9.75;3.50;;;8.30;91.30;;;;;;5020924;28;20037;-64
2022/02/22 04:38:45;;;;;;;10.50;3.58;;;8.30;91.30;;;;;;5018551;28;20059;-62
2022/02/22 04:41:10;;;;;;;9.10;3.60;;;8.30;91.30;;;;;;5017331;28;20147;-65
2022/02/22 04:43:36;;;;;;;24.77;5.35;;;8.30;91.30;;;;;;5019375;28;20084;-62
2022/02/22 04:46:01;;;;;;;8.55;5.07;;;8.30;91.30;;;;;;5021152;28;20038;-59
2022/02/22 04:48:27;;;;;;;12.32;5.75;;;8.30;91.20;;;;;;5018425;28;20037;-62
2022/02/22 04:50:52;;;;;;;6.95;3.90;;;8.40;91.20;;;;;;5021553;28;20028;-60
2022/02/22 04:53:18;;;;;;;10.15;3.92;;;8.40;91.20;;;;;;5018003;28;20189;-61
2022/02/22 04:55:43;;;;;;;11.18;4.45;;;8.40;91.20;;;;;;5019999;28;20447;-63
2022/02/22 04:58:09;;;;;;;11.35;4.35;;;8.30;91.20;;;;;;5020831;28;20084;-62
2022/02/22 05:00:34;;;;;;;17.23;5.30;;;8.30;91.20;;;;;;5017961;28;20095;-63
2022/02/22 05:03:00;;;;;;;9.98;4.63;;;8.40;91.20;;;;;;5021078;28;20037;-61
2022/02/22 05:05:25;;;;;;;13.77;4.57;;;8.40;91.20;;;;;;5021510;28;20094;-62
2022/02/22 05:07:51;;;;;;;20.58;4.82;;;8.40;91.20;;;;;;5019918;28;20338;-60
2022/02/22 05:10:16;;;;;;;12.57;4.85;;;8.40;91.20;;;;;;5020268;28;20047;-59
2022/02/22 05:12:42;;;;;;;26.95;5.45;;;8.40;91.20;;;;;;5017818;28;20051;-59
2022/02/22 05:15:08;;;;;;;24.45;4.93;;;8.40;91.10;;;;;;5022651;28;20044;-62
2022/02/22 05:17:33;;;;;;;12.45;4.68;;;8.40;91.10;;;;;;5020846;28;20227;-63
2022/02/22 05:19:59;;;;;;;14.10;5.15;;;8.30;91.10;;;;;;5020907;28;20112;-61
2022/02/22 05:22:24;;;;;;;21.50;5.00;;;8.40;91.20;;;;;;5017093;28;20547;-60
2022/02/22 05:24:50;;;;;;;18.33;4.95;;;8.40;91.20;;;;;;5018957;28;20101;-62
2022/02/22 05:27:15;;;;;;;26.48;5.07;;;8.40;91.20;;;;;;5022144;28;20040;-61
2022/02/22 05:29:41;;;;;;;18.38;5.63;;;8.40;91.20;;;;;;5024034;28;20041;-62
2022/02/22 05:32:07;;;;;;;18.10;4.95;;;8.40;91.20;;;;;;5025709;28;20179;-59
2022/02/22 05:34:35;;;;;;;19.08;5.22;;;8.40;91.10;;;;;;5025022;28;20841;-61
2022/02/22 05:37:02;;;;;;;24.80;5.88;;;8.40;91.20;;;;;;5020355;28;20056;-61
2022/02/22 05:39:28;;;;;;;25.10;5.00;;;8.40;91.10;;;;;;5020594;28;20033;-63
2022/02/22 05:41:53;;;;;;;27.52;6.03;;;8.40;91.10;;;;;;5024677;28;20108;-60
2022/02/22 05:44:19;;;;;;;23.40;5.35;;;8.40;91.10;;;;;;5021973;28;20037;-60
2022/02/22 05:46:44;;;;;;;16.33;4.55;;;8.30;91.20;;;;;;5025676;28;20087;-59
2022/02/22 05:49:10;;;;;;;15.00;4.75;;;8.30;91.20;;;;;;5023925;28;20128;-62
2022/02/22 05:51:35;;;;;;;25.40;5.03;;;8.40;91.20;;;;;;5023218;28;20040;-63
2022/02/22 05:54:01;;;;;;;18.88;4.35;;;8.40;91.20;;;;;;5021654;28;20044;-62
2022/02/22 05:56:26;;;;;;;19.80;4.75;;;8.30;91.20;;;;;;5023565;28;20149;-63
2022/02/22 05:58:52;;;;;;;19.45;4.75;;;8.30;91.20;;;;;;5023843;28;20125;-60
2022/02/22 06:01:17;;;;;;;19.55;4.53;;;8.30;91.20;;;;;;5006481;28;20017;-63
2022/02/22 06:03:43;;;;;;;17.13;4.55;;;8.30;91.30;;;;;;5021453;28;20670;-60
2022/02/22 06:06:08;;;;;;;13.48;4.20;;;8.30;91.30;;;;;;5020065;28;20176;-63
2022/02/22 06:08:34;;;;;;;16.70;4.45;;;8.30;91.40;;;;;;5022783;28;20381;-58
2022/02/22 06:10:59;;;;;;;17.35;4.80;;;8.30;91.40;;;;;;5023559;28;20108;-61
2022/02/22 06:13:25;;;;;;;15.32;4.07;;;8.30;91.40;;;;;;5025833;28;20033;-63
2022/02/22 06:15:50;;;;;;;15.30;4.72;;;8.30;91.40;;;;;;5024001;28;20426;-59
2022/02/22 06:18:16;;;;;;;25.63;4.43;;;8.30;91.40;;;;;;5022515;28;20345;-62
2022/02/22 06:20:42;;;;;;;14.65;4.00;;;8.20;91.40;;;;;;5024507;28;20025;-63
2022/02/22 06:23:08;;;;;;;16.48;4.03;;;8.30;91.40;;;;;;5024886;28;20056;-62
2022/02/22 06:25:33;;;;;;;17.17;4.13;;;8.30;91.40;;;;;;5023823;28;20115;-62
2022/02/22 06:27:59;;;;;;;13.57;4.22;;;8.30;91.50;;;;;;5025167;28;20060;-61
2022/02/22 06:30:25;;;;;;;14.02;4.18;;;8.30;91.50;;;;;;5020606;28;20564;-60
2022/02/22 06:32:51;;;;;;;11.07;3.70;;;8.30;91.60;;;;;;5022741;28;20238;-62
2022/02/22 06:35:17;;;;;;;14.82;3.97;;;8.20;91.60;;;;;;5021190;28;20025;-64
2022/02/22 06:37:43;;;;;;;8.50;3.35;;;8.30;91.60;;;;;;5021857;28;20040;-59
2022/02/22 06:40:09;;;;;;;9.18;3.30;;;8.20;91.60;;;;;;5004928;28;20644;-61
2022/02/22 06:42:35;;;;;;;10.95;3.38;;;8.20;91.60;;;;;;5022085;28;20033;-63
2022/02/22 06:45:01;;;;;;;14.57;3.63;;;8.30;91.60;;;;;;5004906;28;20922;-60
2022/02/22 06:47:26;;;;;;;12.43;3.10;;;8.20;91.60;;;;;;5023544;28;20028;-60
2022/02/22 06:49:52;;;;;;;9.90;3.45;;;8.30;91.60;;;;;;5024224;28;20115;-61
2022/02/22 06:52:18;;;;;;;9.55;3.22;;;8.30;91.60;;;;;;5022856;28;20034;-58
2022/02/22 06:54:47;;;;;;;10.60;3.58;;;8.20;91.50;;;;;;5021573;28;20041;-63
2022/02/22 06:57:13;;;;;;;9.40;3.53;;;8.30;91.50;;;;;;5018037;28;20136;-62
2022/02/22 06:59:38;;;;;;;10.57;3.55;;;8.20;91.50;;;;;;5004692;28;20580;-59
2022/02/22 07:02:04;;;;;;;15.73;3.97;;;8.20;91.60;;;;;;5022905;28;20367;-60
2022/02/22 07:04:29;;;;;;;12.90;3.70;;;8.20;91.50;;;;;;5022423;28;20083;-61
2022/02/22 07:06:55;;;;;;;11.35;3.47;;;8.20;91.50;;;;;;5020367;28;20079;-61
2022/02/22 07:09:21;;;;;;;11.68;3.38;;;8.20;91.50;;;;;;5019136;28;20905;-62
2022/02/22 07:11:46;;;;;;;13.05;3.75;;;8.30;91.50;;;;;;5019316;28;20026;-61
2022/02/22 07:14:11;;;;;;;9.32;2.90;;;8.30;91.60;;;;;;5022050;28;20025;-63
2022/02/22 07:16:37;;;;;;;10.30;3.60;;;8.20;91.60;;;;;;5019878;28;20462;-58
2022/02/22 07:19:03;;;;;;;10.48;3.60;;;8.30;91.60;;;;;;5022545;28;20045;-60
2022/02/22 07:21:29;;;;;;;10.63;3.08;;;8.30;91.70;;;;;;5018183;28;20030;-59
2022/02/22 07:23:54;;;;;;;10.55;2.90;;;8.50;91.70;;;;;;5020443;28;20052;-62
2022/02/22 07:26:20;;;;;;;7.75;2.88;;;8.20;91.70;;;;;;5019332;28;20033;-60
2022/02/22 07:28:46;;;;;;;9.23;2.90;;;8.30;91.70;;;;;;5021044;28;20114;-60
2022/02/22 07:31:11;;;;;;;9.43;2.92;;;8.30;91.70;;;;;;5023075;28;20532;-62
2022/02/22 07:33:38;;;;;;;13.15;3.55;;;8.30;91.70;;;;;;5021616;28;20164;-59
2022/02/22 07:36:04;;;;;;;11.70;2.88;;;8.30;91.70;;;;;;5018649;28;20418;-59
2022/02/22 07:38:30;;;;;;;16.25;2.67;;;8.30;91.70;;;;;;5013261;28;20045;-62
2022/02/22 07:40:56;;;;;;;13.57;3.10;;;8.30;91.80;;;;;;5020051;28;20102;-58
2022/02/22 07:43:22;;;;;;;14.45;2.70;;;8.30;91.80;;;;;;5019949;28;20043;-64
2022/02/22 07:45:47;;;;;;;8.13;2.47;;;8.20;91.70;;;;;;5020660;28;20021;-61
2022/02/22 07:48:13;;;;;;;9.45;2.63;;;8.30;91.70;;;;;;5020813;28;20040;-61
2022/02/22 07:50:38;;;;;;;8.35;2.85;;;8.20;91.70;;;;;;5020349;28;20449;-64
2022/02/22 07:53:04;;;;;;;15.20;3.08;;;8.30;91.80;;;;;;5019294;28;20036;-63
2022/02/22 07:55:30;;;;;;;6.63;2.58;;;8.30;91.80;;;;;;5020581;28;20024;-61
2022/02/22 07:57:55;;;;;;;12.13;2.88;;;8.20;91.80;;;;;;5004343;28;20037;-63
2022/02/22 08:00:21;;;;;;;9.40;2.63;;;8.20;91.80;;;;;;5017168;28;20407;-63
2022/02/22 08:02:46;;;;;;;12.02;2.50;;;8.20;91.80;;;;;;5016388;28;20044;-62
2022/02/22 08:05:12;;;;;;;8.82;2.53;;;8.30;91.80;;;;;;5002187;28;20457;-60
2022/02/22 08:07:37;;;;;;;6.78;2.42;;;8.20;91.80;;;;;;5012338;28;20093;-62
2022/02/22 08:10:07;;;;;;;6.53;2.75;;;8.20;91.80;;;;;;5018631;28;20110;-63
2022/02/22 08:12:33;;;;;;;9.05;2.65;;;8.30;91.80;;;;;;5009566;28;20029;-60
2022/02/22 08:14:58;;;;;;;10.40;3.20;;;8.20;91.80;;;;;;5016608;28;20049;-61
2022/02/22 08:17:24;;;;;;;12.25;3.17;;;8.30;91.80;;;;;;5016637;28;20029;-62
2022/02/22 08:19:49;;;;;;;9.80;3.00;;;8.30;91.80;;;;;;5019343;28;20087;-59
2022/02/22 08:22:15;;;;;;;9.90;3.38;;;8.30;91.90;;;;;;5003608;28;20656;-61
2022/02/22 08:24:40;;;;;;;7.78;2.30;;;8.30;91.90;;;;;;5000719;28;20082;-59
2022/02/22 08:27:06;;;;;;;8.32;2.35;;;8.30;91.90;;;;;;5018062;28;20037;-61
2022/02/22 08:29:32;;;;;;;9.45;2.20;;;8.30;91.90;;;;;;5015999;28;20041;-61
2022/02/22 08:31:58;;;;;;;9.30;2.63;;;8.40;91.90;;;;;;5018300;28;20033;-62
2022/02/22 08:34:23;;;;;;;10.18;3.08;;;8.40;92.00;;;;;;5015631;28;20025;-61
2022/02/22 08:36:49;;;;;;;14.90;3.30;;;8.30;92.10;;;;;;5017767;28;20029;-59
2022/02/22 08:39:14;;;;;;;6.93;2.35;;;8.30;92.10;;;;;;5018919;28;20689;-62
2022/02/22 08:41:40;;;;;;;13.43;2.63;;;8.30;91.90;;;;;;5015584;28;20123;-59
2022/02/22 08:44:05;;;;;;;9.32;2.20;;;8.30;91.90;;;;;;5015204;28;20131;-62
2022/02/22 08:46:31;;;;;;;16.73;3.00;;;8.40;91.90;;;;;;5019458;28;20037;-61
2022/02/22 08:48:56;;;;;;;9.80;2.15;;;8.30;91.80;;;;;;5016060;28;20065;-59
2022/02/22 08:51:22;;;;;;;16.23;3.30;;;8.30;91.90;;;;;;5017413;28;20025;-61
2022/02/22 08:53:47;;;;;;;15.27;2.72;;;8.40;91.90;;;;;;5015535;28;20147;-60
2022/02/22 08:56:13;;;;;;;11.02;2.72;;;8.40;91.90;;;;;;5016287;28;20512;-58
2022/02/22 08:58:38;;;;;;;12.65;2.78;;;8.40;91.90;;;;;;5011308;28;20034;-59
2022/02/22 09:01:04;;;;;;;14.63;3.13;;;8.40;91.80;;;;;;5016024;28;20163;-60
2022/02/22 09:03:29;;;;;;;130.20;10.88;;;8.40;91.80;;;;;;5006843;28;20021;-60
2022/02/22 09:05:55;;;;;;;34.90;5.07;;;8.50;91.90;;;;;;5023647;28;20132;-63
2022/02/22 09:08:21;;;;;;;32.10;4.45;;;8.50;92.00;;;;;;5022235;28;20040;-62
2022/02/22 09:10:47;;;;;;;23.15;4.75;;;8.50;91.90;;;;;;5028365;28;20029;-59
2022/02/22 09:13:13;;;;;;;25.63;4.25;;;8.50;91.90;;;;;;5027359;28;20465;-59
2022/02/22 09:15:38;;;;;;;18.05;3.63;;;8.50;91.90;;;;;;5025086;28;20079;-63
2022/02/22 09:18:04;;;;;;;14.63;3.75;;;8.50;91.80;;;;;;5021673;28;20095;-59
2022/02/22 09:20:29;;;;;;;25.20;3.97;;;8.50;91.90;;;;;;5023136;28;20072;-61
2022/02/22 09:22:55;;;;;;;29.25;4.15;;;8.50;91.80;;;;;;5025390;28;20371;-62
2022/02/22 09:25:21;;;;;;;19.67;4.00;;;8.60;91.90;;;;;;5024779;28;20029;-62
2022/02/22 09:27:47;;;;;;;47.70;5.40;;;8.50;91.90;;;;;;5021789;28;20040;-60
2022/02/22 09:30:14;;;;;;;40.10;5.15;;;8.60;92.00;;;;;;5023873;28;20045;-62
2022/02/22 09:32:40;;;;;;;66.85;7.25;;;8.60;92.00;;;;;;5020476;28;20037;-62
2022/02/22 09:35:06;;;;;;;74.50;9.38;;;8.60;91.90;;;;;;5020131;28;20120;-59
2022/02/22 09:37:32;;;;;;;42.15;7.68;;;8.70;92.00;;;;;;5026065;28;20025;-61
2022/02/22 09:39:57;;;;;;;33.45;5.65;;;8.60;91.90;;;;;;5022541;28;20041;-60
2022/02/22 09:42:25;;;;;;;37.22;4.68;;;8.60;91.90;;;;;;5022560;28;20077;-62
2022/02/22 09:44:51;;;;;;;29.63;5.70;;;8.70;91.90;;;;;;5023024;28;20461;-62
2022/02/22 09:47:17;;;;;;;41.83;5.75;;;8.70;91.90;;;;;;5022846;28;20037;-59
2022/02/22 09:49:42;;;;;;;50.30;6.90;;;8.70;91.90;;;;;;5023409;28;21355;-60
2022/02/22 09:52:08;;;;;;;39.22;5.75;;;8.70;91.90;;;;;;5025871;28;20037;-61
2022/02/22 09:54:34;;;;;;;25.25;5.50;;;8.80;91.80;;;;;;5025183;28;20077;-62
2022/02/22 09:57:00;;;;;;;39.33;6.65;;;8.80;91.90;;;;;;5020703;28;20030;-62
2022/02/22 09:59:26;;;;;;;35.03;5.25;;;8.80;91.90;;;;;;5004802;28;20056;-65
2022/02/22 10:01:53;;;;;;;45.03;5.82;;;8.80;91.80;;;;;;5022393;28;20025;-62
2022/02/22 10:04:18;;;;;;;76.30;9.32;;;8.90;91.80;;;;;;5024561;28;20024;-61
2022/02/22 10:06:44;;;;;;;64.07;8.07;;;8.90;91.90;;;;;;5020093;28;20030;-61
2022/02/22 10:09:09;;;;;;;88.30;12.77;;;8.90;91.90;;;;;;5001294;28;20028;-63
2022/02/22 10:11:48;;;;;;;59.97;8.65;;;9.00;91.90;;;;;;5017487;28;20037;-63
2022/02/22 10:14:24;;;;;;;54.60;8.95;;;9.00;91.90;;;;;;5020097;28;20045;-62
2022/02/22 10:16:51;;;;;;;58.17;9.30;;;9.10;91.80;;;;;;5021686;28;20032;-61
2022/02/22 10:19:17;;;;;;;65.25;7.65;;;9.10;91.80;;;;;;5024267;28;20026;-60
2022/02/22 10:21:46;;;;;;;71.50;8.35;;;9.10;91.80;;;;;;5022865;28;20365;-60
2022/02/22 10:24:12;;;;;;;72.57;8.85;;;9.20;91.80;;;;;;5023394;28;20033;-62
2022/02/22 10:26:37;;;;;;;86.18;8.98;;;9.20;91.70;;;;;;5015616;28;20072;-61
2022/02/22 10:29:16;;;;;;;59.45;9.27;;;9.20;91.80;;;;;;5018399;28;20545;-61
2022/02/22 10:31:47;;;;;;;65.47;9.00;;;9.20;91.70;;;;;;5000215;28;20026;-61
2022/02/22 10:34:13;;;;;;;67.22;9.10;;;9.20;91.70;;;;;;4989268;28;20022;-62
2022/02/22 10:36:41;;;;;;;67.00;9.05;;;9.30;91.80;;;;;;5018474;28;20160;-61
2022/02/22 10:39:10;;;;;;;46.35;8.15;;;9.30;91.80;;;;;;5001397;28;20755;-62
2022/02/22 10:41:37;;;;;;;68.78;10.25;;;9.30;91.80;;;;;;5016387;28;20044;-63
2022/02/22 10:44:03;;;;;;;69.03;7.75;;;9.30;91.80;;;;;;5020292;28;20021;-61
2022/02/22 10:46:31;;;;;;;44.17;6.05;;;9.40;91.90;;;;;;5018655;28;20033;-65
2022/02/22 10:49:13;;;;;;;41.45;7.35;;;9.30;91.70;;;;;;5013743;28;21068;-60
2022/02/22 10:51:41;;;;;;;68.35;8.82;;;9.40;91.70;;;;;;5016495;28;20358;-61
2022/02/22 10:54:07;;;;;;;48.10;6.93;;;9.40;91.80;;;;;;5016858;28;20022;-62
2022/02/22 10:56:33;;;;;;;37.83;6.93;;;9.40;91.80;;;;;;5021638;28;20045;-59
2022/02/22 10:58:59;;;;;;;58.60;7.53;;;9.40;91.70;;;;;;5022721;28;20018;-63
2022/02/22 11:01:25;;;;;;;68.20;9.50;;;9.40;91.70;;;;;;5018694;28;20134;-60
2022/02/22 11:03:51;;;;;;;47.75;7.85;;;9.50;91.80;;;;;;5020250;28;20025;-60
2022/02/22 11:06:16;;;;;;;47.65;6.72;;;9.50;91.80;;;;;;5020797;28;20111;-62
2022/02/22 11:08:47;;;;;;;59.33;7.75;;;9.50;91.70;;;;;;5018700;28;20547;-61
2022/02/22 11:11:27;;;;;;;51.33;7.80;;;9.50;91.70;;;;;;5017237;28;20029;-62
2022/02/22 11:13:57;;;;;;;51.20;7.50;;;9.40;91.60;;;;;;5015105;28;20589;-59
2022/02/22 11:16:23;;;;;;;69.65;8.85;;;9.50;91.70;;;;;;5021100;28;20112;-58
2022/02/22 11:18:50;;;;;;;54.33;8.05;;;9.50;91.70;;;;;;5003899;28;20758;-59
2022/02/22 11:21:16;;;;;;;72.75;8.35;;;9.40;91.70;;;;;;5017253;28;20040;-59
2022/02/22 11:23:42;;;;;;;74.97;8.25;;;9.40;91.70;;;;;;5016182;28;20065;-61
2022/02/22 11:26:18;;;;;;;66.13;6.97;;;9.40;91.60;;;;;;5016547;28;20052;-61
2022/02/22 11:28:49;;;;;;;50.65;5.95;;;9.40;91.60;;;;;;5014209;28;20032;-60
2022/02/22 11:31:17;;;;;;;56.92;9.45;;;9.40;91.50;;;;;;5013184;28;20350;-61
2022/02/22 11:33:44;;;;;;;55.90;9.85;;;9.40;91.60;;;;;;5015775;28;20032;-61
2022/02/22 11:36:10;;;;;;;74.93;9.63;;;9.50;91.60;;;;;;5018991;28;20469;-59
2022/02/22 11:38:45;;;;;;;85.05;9.85;;;9.50;91.60;;;;;;5020822;28;20040;-61
2022/02/22 11:41:16;;;;;;;76.32;8.23;;;9.50;91.60;;;;;;5019186;28;20025;-62
2022/02/22 11:43:50;;;;;;;116.13;14.20;;;9.50;91.40;;;;;;5013891;28;20035;-60
2022/02/22 11:46:15;;;;;;;81.28;9.73;;;9.60;91.40;;;;;;4999514;28;20037;-65
2022/02/22 11:48:41;;;;;;;88.70;9.25;;;9.60;91.40;;;;;;4999678;28;20504;-60
2022/02/22 11:51:15;;;;;;;80.40;10.23;;;9.60;91.30;;;;;;5004413;28;20098;-59
2022/02/22 11:53:41;;;;;;;90.03;10.32;;;9.70;91.20;;;;;;5002202;28;20037;-59
2022/02/22 11:56:06;;;;;;;73.05;8.65;;;9.70;91.10;;;;;;5016859;28;20099;-60
2022/02/22 11:58:36;;;;;;;72.63;10.35;;;9.80;91.00;;;;;;5015742;28;20053;-59
2022/02/22 12:01:05;;;;;;;82.00;10.93;;;9.80;90.90;;;;;;5018969;28;20029;-59
2022/02/22 12:03:49;;;;;;;514.90;55.75;;;9.80;90.90;;;;;;5004551;28;20022;-61
2022/02/22 12:06:16;;;;;;;87.38;11.23;;;9.80;90.80;;;;;;5021893;28;20041;-62
2022/02/22 12:08:42;;;;;;;85.95;9.35;;;9.90;90.60;;;;;;4986672;28;20499;-63
2022/02/22 12:11:17;;;;;;;89.72;9.93;;;9.90;90.50;;;;;;5012796;28;20045;-61
2022/02/22 12:13:50;;;;;;;71.38;9.30;;;9.90;90.50;;;;;;5017459;28;21338;-60
2022/02/22 12:16:21;;;;;;;60.33;7.65;;;10.00;90.30;;;;;;5018403;28;20017;-61
2022/02/22 12:18:48;;;;;;;62.75;7.32;;;10.00;90.30;;;;;;5017909;28;20028;-59
2022/02/22 12:21:14;;;;;;;47.95;8.05;;;10.00;90.10;;;;;;5018087;28;20556;-58
2022/02/22 12:23:40;;;;;;;84.05;8.07;;;10.00;90.20;;;;;;5017105;28;20044;-62
2022/02/22 12:26:08;;;;;;;68.68;9.02;;;10.00;90.00;;;;;;5003251;28;20421;-62
2022/02/22 12:28:53;;;;;;;70.45;9.55;;;10.10;90.10;;;;;;5004169;28;20412;-60
2022/02/22 12:31:28;;;;;;;89.03;10.93;;;10.10;90.20;;;;;;5019974;28;20592;-62
2022/02/22 12:34:01;;;;;;;72.43;9.60;;;10.20;90.20;;;;;;5003496;28;20037;-60
2022/02/22 12:36:27;;;;;;;53.65;9.55;;;10.20;90.10;;;;;;5022411;28;20040;-60
2022/02/22 12:38:58;;;;;;;68.53;7.95;;;10.20;90.00;;;;;;5021009;28;20022;-59
2022/02/22 12:41:26;;;;;;;58.63;8.70;;;10.20;89.80;;;;;;5006686;28;20025;-60